Data for 08/02/2013

Time Sea-Level Adjusted Pressure Absolute Pressure Temperature Relative Humidity Dew Point   
(mb) (inHg) (mb) (inHg) (C) (F) (%) (C) (F)
00:05 1017 30.03 846 24.98 13.5 56.2 85 11 51.7
00:10 1017 30.03 846 24.98 13.3 55.9 85 10.9 51.6
00:15 1017 30.03 846 24.98 13.3 56 84 10.7 51.3
00:20 1016 30 846 24.98 13.3 55.9 84 10.7 51.3
00:25 1017 30.03 846 24.98 13.3 56 83 10.6 51
00:30 1016 30 846 24.98 13.4 56.2 82 10.4 50.7
00:35 1017 30.03 846 24.98 13.5 56.2 83 10.7 51.2
00:40 1017 30.03 846 24.98 13.3 56 82 10.3 50.6
00:45 1016 30 846 24.98 13.5 56.3 81 10.3 50.5
00:50 1016 30 845 24.95 13.5 56.4 80 10.1 50.2
00:55 1016 30 845 24.95 13.6 56.5 79 10.2 50.3
01:00 1016 30 845 24.95 13.6 56.5 79 10.1 50.2
01:05 1016 30 846 24.98 13.6 56.5 79 10.1 50.2
01:10 1017 30.03 846 24.98 13.6 56.5 79 10.1 50.2
01:15 1017 30.03 846 24.98 13.6 56.5 80 10.3 50.6
01:20 1017 30.03 846 24.98 13.5 56.3 80 10.1 50.1
01:25 1017 30.03 846 24.98 13.6 56.4 80 10.1 50.3
01:30 1017 30.03 847 25.01 13.6 56.5 79 10.1 50.1
01:35 1017 30.03 846 24.98 13.7 56.6 78 10 50
01:40 1017 30.03 847 25.01 13.7 56.6 79 10.2 50.3
01:45 1017 30.03 847 25.01 13.6 56.4 80 10.1 50.3
01:50 1017 30.03 847 25.01 13.5 56.4 80 10.2 50.4
01:55 1017 30.03 846 24.98 13.5 56.3 81 10.4 50.7
02:00 1017 30.03 846 24.98 13.3 55.9 83 10.5 50.9
02:05 1017 30.03 847 25.01 13.3 55.9 82 10.3 50.6
02:10 1017 30.03 847 25.01 13.2 55.7 83 10.4 50.7
02:15 1018 30.06 847 25.01 13.1 55.6 83 10.4 50.7
02:20 1018 30.06 847 25.01 13.1 55.5 84 10.4 50.7
02:25 1018 30.06 847 25.01 13 55.5 84 10.4 50.8
02:30 1018 30.06 847 25.01 13.2 55.7 87 11.1 52
02:35 1018 30.06 847 25.01 13.4 56 86 11 51.9
02:40 1018 30.06 847 25.01 13.5 56.2 86 11.2 52.1
02:45 1018 30.06 847 25.01 13.5 56.3 86 11.2 52.2
02:50 1018 30.06 847 25.01 13.6 56.4 86 11.2 52.2
02:55 1018 30.06 847 25.01 13.6 56.4 83 10.8 51.4
03:00 1018 30.06 847 25.01 13.4 56.1 82 10.5 50.9
03:05 1018 30.06 847 25.01 13.5 56.4 82 10.5 50.8
03:10 1018 30.06 847 25.01 13.6 56.6 81 10.5 51
03:15 1018 30.06 847 25.01 13.6 56.5 82 10.6 51.1
03:20 1018 30.06 847 25.01 13.6 56.6 81 10.5 51
03:25 1018 30.06 847 25.01 13.6 56.6 80 10.3 50.6
03:30 1018 30.06 847 25.01 13.6 56.4 82 10.7 51.2
03:35 1018 30.06 847 25.01 13.4 56.2 83 10.7 51.2
03:40 1018 30.06 847 25.01 13.3 55.9 84 10.6 51.2
03:45 1018 30.06 847 25.01 13.2 55.8 83 10.5 50.9
03:50 1018 30.06 847 25.01 13.2 55.7 84 10.6 51.1
03:55 1018 30.06 847 25.01 13.1 55.6 84 10.5 50.9
04:00 1018 30.06 847 25.01 13.2 55.8 84 10.6 51.2
04:05 1018 30.06 847 25.01 13.1 55.6 87 10.9 51.7
04:10 1018 30.06 847 25.01 12.8 55 88 10.9 51.5
04:15 1018 30.06 847 25.01 12.7 54.8 88 10.8 51.5
04:20 1018 30.06 847 25.01 12.6 54.7 89 11 51.7
04:25 1018 30.06 847 25.01 12.5 54.5 90 10.9 51.7
04:30 1018 30.06 847 25.01 12.4 54.2 90 10.8 51.4
04:35 1018 30.06 847 25.01 12.3 54.1 91 10.8 51.4
04:40 1018 30.06 847 25.01 12.2 54 91 10.8 51.5
04:45 1018 30.06 847 25.01 12.1 53.8 91 10.7 51.3
04:50 1018 30.06 847 25.01 12.1 53.8 91 10.7 51.2
04:55 1018 30.06 847 25.01 11.8 53.3 92 10.6 51.1
05:00 1018 30.06 847 25.01 11.6 52.9 92 10.4 50.7
05:05 1018 30.06 847 25.01 11.7 53.1 91 10.3 50.6
05:10 1018 30.06 847 25.01 11.7 53.1 91 10.2 50.4
05:15 1018 30.06 847 25.01 11.7 53 91 10.3 50.5
05:20 1018 30.06 847 25.01 11.6 52.9 92 10.3 50.6
05:25 1018 30.06 847 25.01 11.6 52.9 91 10.3 50.5
05:30 1018 30.06 847 25.01 11.7 53 91 10.3 50.5
05:35 1018 30.06 847 25.01 11.6 52.9 91 10.2 50.3
05:40 1018 30.06 847 25.01 11.7 53.1 90 10.1 50.2
05:45 1018 30.06 847 25.01 11.8 53.3 89 10.2 50.3
05:50 1018 30.06 847 25.01 12 53.5 89 10.1 50.2
05:55 1018 30.06 847 25.01 12 53.5 89 10.2 50.4
06:00 1018 30.06 847 25.01 12.1 53.8 88 10.1 50.2
06:05 1018 30.06 847 25.01 12.4 54.3 86 10.2 50.4
06:10 1018 30.06 847 25.01 12.3 54.1 88 10.3 50.5
06:15 1018 30.06 847 25.01 12.3 54.2 86 10.1 50.2
06:20 1018 30.06 847 25.01 12.7 54.8 86 10.3 50.6
06:25 1018 30.06 847 25.01 12.9 55.3 85 10.5 50.9
06:30 1018 30.06 847 25.01 13.2 55.8 85 10.7 51.3
06:35 1018 30.06 847 25.01 13.4 56.1 85 11 51.8
06:40 1018 30.06 847 25.01 13.6 56.5 83 10.8 51.5
06:45 1018 30.06 847 25.01 13.5 56.3 84 10.8 51.5
06:50 1018 30.06 847 25.01 13.7 56.6 82 10.8 51.4
06:55 1018 30.06 848 25.04 14.3 57.7 81 11.2 52.1
07:00 1018 30.06 848 25.04 14.2 57.5 83 11.3 52.4
07:05 1018 30.06 848 25.04 14 57.2 85 11.5 52.6
07:10 1018 30.06 848 25.04 14.4 57.9 83 11.6 52.8
07:15 1018 30.06 848 25.04 14.2 57.5 84 11.5 52.7
07:20 1018 30.06 848 25.04 14.2 57.5 83 11.4 52.4
07:25 1018 30.06 848 25.04 14.5 58.1 84 11.9 53.4
07:30 1018 30.06 848 25.04 14.3 57.8 83 11.5 52.7
07:35 1018 30.06 848 25.04 14.3 57.7 83 11.4 52.5
07:40 1018 30.06 848 25.04 14.7 58.4 83 11.9 53.4
07:45 1018 30.06 848 25.04 15.1 59.2 81 12 53.5
07:50 1019 30.09 848 25.04 15 58.9 80 11.6 52.9
07:55 1019 30.09 848 25.04 15.2 59.4 80 11.8 53.3
08:00 1019 30.09 848 25.04 15.5 59.9 77 11.5 52.8
08:05 1019 30.09 848 25.04 15.3 59.5 79 11.7 53.1
08:10 1019 30.09 848 25.04 15.7 60.3 77 11.8 53.3
08:15 1019 30.09 848 25.04 16.2 61.1 76 12 53.6
08:20 1019 30.09 848 25.04 15.6 60.1 75 11.2 52.2
08:25 1019 30.09 848 25.04 15.6 60.1 78 11.9 53.4
08:30 1019 30.09 848 25.04 16.2 61.1 71 11 51.9
08:35 1019 30.09 848 25.04 17.1 62.8 69 11.4 52.5
08:40 1019 30.09 848 25.04 16.9 62.4 69 11.2 52.2
08:45 1019 30.09 848 25.04 16.6 61.8 72 11.6 52.8
08:50 1019 30.09 848 25.04 17.3 63.2 67 11.3 52.4
08:55 1019 30.09 848 25.04 17.5 63.5 66 11.2 52.2
09:00 1019 30.09 848 25.04 17.7 63.9 68 11.8 53.2
09:05 1019 30.09 848 25.04 17.4 63.4 69 11.7 53.1
09:10 1019 30.09 848 25.04 17.6 63.6 66 11.2 52.2
09:15 1019 30.09 848 25.04 17.9 64.2 65 11.3 52.4
09:20 1019 30.09 848 25.04 18.2 64.7 66 11.9 53.4
09:25 1019 30.09 848 25.04 17.5 63.6 68 11.6 52.9
09:30 1019 30.09 848 25.04 16.9 62.4 68 11.1 51.9
09:35 1019 30.09 848 25.04 17.1 62.7 66 10.8 51.4
09:40 1019 30.09 848 25.04 18 64.4 65 11.3 52.3
09:45 1019 30.09 848 25.04 18.7 65.7 60 10.8 51.4
09:50 1019 30.09 848 25.04 19.3 66.7 60 11.5 52.7
09:55 1019 30.09 848 25.04 18.5 65.4 61 10.9 51.7
10:00 1019 30.09 848 25.04 18.2 64.7 60 10.5 50.9
10:05 1019 30.09 848 25.04 19.1 66.4 59 11.1 52.1
10:10 1019 30.09 848 25.04 18.6 65.6 60 10.8 51.5
10:15 1019 30.09 848 25.04 18.4 65 61 10.8 51.5
10:20 1019 30.09 848 25.04 18.7 65.7 58 10.5 50.8
10:25 1019 30.09 848 25.04 18.8 65.9 57 10.2 50.4
10:30 1019 30.09 848 25.04 19.6 67.2 56 10.7 51.3
10:35 1019 30.09 848 25.04 18.8 65.9 61 11.1 52.1
10:40 1019 30.09 848 25.04 18.3 65 58 9.9 49.9
10:45 1019 30.09 848 25.04 19.2 66.6 54 9.7 49.4
10:50 1019 30.09 848 25.04 20.2 68.3 55 10.8 51.5
10:55 1019 30.09 848 25.04 19.9 67.8 57 11.1 52
11:00 1019 30.09 848 25.04 19.2 66.6 54 9.8 49.6
11:05 1019 30.09 848 25.04 20.4 68.8 49 9.6 49.2
11:10 1019 30.09 848 25.04 21 69.8 49 10.1 50.2
11:15 1019 30.09 848 25.04 21.1 70 48 9.8 49.7
11:20 1019 30.09 848 25.04 20.6 69.2 48 9.3 48.8
11:25 1019 30.09 848 25.04 20.5 68.8 48 9.1 48.4
11:30 1019 30.09 848 25.04 21 69.7 47 9.3 48.7
11:35 1019 30.09 848 25.04 21.1 70.1 44 8.6 47.5
11:40 1019 30.09 848 25.04 21.4 70.6 47 9.9 49.7
11:45 1019 30.09 848 25.04 20.6 69 49 9.8 49.6
11:50 1019 30.09 848 25.04 20.7 69.3 46 8.9 48.1
11:55 1019 30.09 848 25.04 21.1 69.9 47 9.3 48.8
12:00 1019 30.09 848 25.04 20.1 68.2 50 9.4 48.9
12:05 1019 30.09 848 25.04 19.8 67.7 50 9.2 48.5
12:10 1019 30.09 848 25.04 20.2 68.3 47 8.5 47.3
12:15 1019 30.09 848 25.04 20.5 69 47 8.9 48
12:20 1019 30.09 848 25.04 20.6 69.1 50 10 50
12:25 1019 30.09 848 25.04 20.3 68.5 49 9.3 48.7
12:30 1019 30.09 848 25.04 20.3 68.6 45 8.3 46.9
12:35 1019 30.09 848 25.04 21 69.7 46 9 48.1
12:40 1019 30.09 848 25.04 21.9 71.4 41 8.3 47
12:45 1019 30.09 848 25.04 21.8 71.2 41 8 46.4
12:50 1019 30.09 848 25.04 22.2 72 39 7.6 45.8
12:55 1019 30.09 848 25.04 21.8 71.3 39 7.5 45.6
13:00 1019 30.09 848 25.04 22.5 72.5 37 7.4 45.4
13:05 1019 30.09 848 25.04 23.1 73.6 37 7.7 45.8
13:10 1019 30.09 848 25.04 22.6 72.8 37 7.5 45.5
13:15 1019 30.09 848 25.04 22.9 73.2 35 6.7 44.1
13:20 1018 30.06 848 25.04 22.6 72.6 36 6.9 44.4
13:25 1018 30.06 848 25.04 22.8 73 34 6.1 43
13:30 1018 30.06 848 25.04 23.2 73.8 33 6.5 43.7
13:35 1018 30.06 848 25.04 23.6 74.6 32 6.4 43.5
13:40 1018 30.06 848 25.04 24 75.2 30 5.7 42.2
13:45 1018 30.06 848 25.04 24.2 75.6 31 6.1 42.9
13:50 1018 30.06 848 25.04 24.5 76.2 30 6.2 43.2
13:55 1018 30.06 848 25.04 24.6 76.2 29 5.5 42
14:00 1018 30.06 848 25.04 24.1 75.4 31 5.9 42.7
14:05 1018 30.06 848 25.04 23.8 74.9 29 4.9 40.9
14:10 1018 30.06 847 25.01 24 75.3 30 5.5 41.9
14:15 1018 30.06 848 25.04 24.2 75.6 28 4.8 40.6
14:20 1018 30.06 848 25.04 24.5 76 27 4.4 39.9
14:25 1018 30.06 847 25.01 24.4 75.9 28 5 41
14:30 1018 30.06 847 25.01 24.6 76.3 28 5.3 41.6
14:35 1018 30.06 847 25.01 24.2 75.5 29 5.1 41.1
14:40 1018 30.06 847 25.01 24.7 76.4 28 4.9 40.9
14:45 1018 30.06 847 25.01 24.9 76.8 27 5.1 41.1
14:50 1018 30.06 847 25.01 24.4 75.9 28 4.9 40.8
14:55 1018 30.06 847 25.01 24.4 75.8 28 4.7 40.5
15:00 1018 30.06 847 25.01 24.7 76.4 28 5.2 41.3
15:05 1018 30.06 847 25.01 24.7 76.5 26 4.4 39.9
15:10 1018 30.06 847 25.01 24.2 75.6 28 4.8 40.6
15:15 1018 30.06 847 25.01 23.8 74.9 28 4.5 40
15:20 1018 30.06 847 25.01 23.9 75.1 27 4.2 39.5
15:25 1018 30.06 847 25.01 24.5 76.1 25 3.5 38.4
15:30 1018 30.06 847 25.01 25 76.9 25 3.6 38.5
15:35 1018 30.06 847 25.01 24.5 76.1 26 4 39.3
15:40 1018 30.06 847 25.01 25.1 77.3 25 4.2 39.5
15:45 1018 30.06 847 25.01 25.3 77.6 24 3.7 38.7
15:50 1018 30.06 847 25.01 25.2 77.4 26 4.8 40.6
15:55 1018 30.06 847 25.01 25.3 77.6 24 3.7 38.6
16:00 1018 30.06 847 25.01 25.6 78 24 4 39.1
16:05 1018 30.06 847 25.01 25.5 77.9 24 3.7 38.7
16:10 1018 30.06 847 25.01 25.5 78 24 3.5 38.3
16:15 1018 30.06 847 25.01 24.5 76.1 24 3 37.4
16:20 1018 30.06 847 25.01 25.4 77.7 23 2.8 37
16:25 1018 30.06 847 25.01 25.5 77.9 23 3.2 37.8
16:30 1018 30.06 847 25.01 25.1 77.1 24 3.3 37.9
16:35 1018 30.06 847 25.01 25 77.1 24 3 37.5
16:40 1018 30.06 847 25.01 24.6 76.2 25 3.2 37.8
16:45 1018 30.06 847 25.01 24.9 76.7 24 3 37.3
16:50 1018 30.06 847 25.01 25.6 78.1 23 3.3 37.9
16:55 1018 30.06 847 25.01 25.2 77.3 24 3.5 38.3
17:00 1018 30.06 847 25.01 24.9 76.9 24 3.4 38.2
17:05 1018 30.06 847 25.01 24.6 76.3 26 4.3 39.7
17:10 1018 30.06 847 25.01 24.3 75.7 25 3.4 38.1
17:15 1018 30.06 847 25.01 23.7 74.7 25 2.8 37.1
17:20 1018 30.06 847 25.01 23.3 73.9 28 4.1 39.4
17:25 1018 30.06 847 25.01 23.2 73.7 27 3.6 38.5
17:30 1018 30.06 847 25.01 23.3 73.9 27 3.3 37.9
17:35 1018 30.06 847 25.01 23.5 74.2 25 2.8 37
17:40 1018 30.06 847 25.01 23.7 74.6 25 2.6 36.7
17:45 1018 30.06 847 25.01 23.9 74.9 24 2.5 36.5
17:50 1018 30.06 847 25.01 23.8 74.8 24 2.3 36.1
17:55 1018 30.06 847 25.01 23.6 74.4 24 1.9 35.5
18:00 1018 30.06 847 25.01 23.5 74.2 24 2.2 36
18:05 1018 30.06 847 25.01 23.1 73.6 24 1.6 34.9
18:10 1018 30.06 847 25.01 22.9 73.3 26 2.4 36.3
18:15 1018 30.06 847 25.01 22.9 73.1 26 2.8 37.1
18:20 1018 30.06 847 25.01 22.8 73 27 3.2 37.8
18:25 1018 30.06 847 25.01 22.5 72.5 28 3.3 38
18:30 1018 30.06 847 25.01 22.4 72.4 27 2.7 36.9
18:35 1018 30.06 847 25.01 22.3 72.1 29 3.4 38.2
18:40 1018 30.06 847 25.01 22.4 72.4 27 2.9 37.3
18:45 1018 30.06 847 25.01 22.4 72.4 27 2.9 37.2
18:50 1018 30.06 847 25.01 22.5 72.4 28 3 37.4
18:55 1018 30.06 848 25.04 22.4 72.4 28 3.5 38.3
19:00 1018 30.06 848 25.04 22.4 72.2 28 3.1 37.6
19:05 1019 30.09 848 25.04 22.2 72 29 3.4 38
19:10 1019 30.09 848 25.04 22 71.5 30 3.6 38.4
19:15 1019 30.09 848 25.04 21.7 71 31 4 39.1
19:20 1019 30.09 848 25.04 21.4 70.5 31 3.9 39.1
19:25 1019 30.09 848 25.04 20.8 69.4 42 7.5 45.4
19:30 1019 30.09 848 25.04 20.5 68.9 48 9.3 48.7
19:35 1019 30.09 849 25.07 20.3 68.5 51 9.9 49.7
19:40 1019 30.09 849 25.07 20.2 68.4 53 10.4 50.6
19:45 1019 30.09 849 25.07 20 67.9 54 10.5 50.9
19:50 1020 30.12 849 25.07 19.7 67.5 56 10.7 51.3
19:55 1020 30.12 849 25.07 19.5 67.2 56 10.8 51.4
20:00 1020 30.12 849 25.07 19.3 66.8 57 10.8 51.5
20:05 1020 30.12 849 25.07 19.1 66.4 58 10.8 51.5
20:10 1020 30.12 849 25.07 18.9 66 59 10.9 51.6
20:15 1020 30.12 849 25.07 18.7 65.7 60 11 51.8
20:20 1020 30.12 849 25.07 18.6 65.5 62 11.2 52.2
20:25 1020 30.12 849 25.07 18.4 65.2 63 11.4 52.4
20:30 1020 30.12 849 25.07 18.3 65 64 11.4 52.4
20:35 1020 30.12 849 25.07 18.2 64.8 64 11.4 52.4
20:40 1020 30.12 850 25.1 18.2 64.7 63 11.2 52.1
20:45 1020 30.12 850 25.1 18.1 64.6 65 11.4 52.5
20:50 1021 30.15 850 25.1 17.9 64.3 65 11.4 52.6
20:55 1021 30.15 850 25.1 17.8 64 66 11.5 52.6
21:00 1021 30.15 850 25.1 17.7 63.8 67 11.5 52.8
21:05 1021 30.15 850 25.1 17.5 63.5 67 11.4 52.5
21:10 1021 30.15 850 25.1 17.5 63.4 67 11.3 52.3
21:15 1021 30.15 850 25.1 17.4 63.3 59 9.3 48.8
21:20 1021 30.15 850 25.1 17.5 63.5 59 9.6 49.3
21:25 1021 30.15 850 25.1 17.4 63.3 51 7.3 45.1
21:30 1021 30.15 850 25.1 17.4 63.4 47 6.2 43.1
21:35 1021 30.15 850 25.1 17.4 63.4 46 5.9 42.6
21:40 1021 30.15 850 25.1 17.3 63.1 47 6 42.7
21:45 1021 30.15 850 25.1 17.1 62.8 47 6 42.7
21:50 1021 30.15 850 25.1 17 62.5 48 6 42.7
21:55 1021 30.15 850 25.1 16.9 62.4 47 5.6 42
22:00 1021 30.15 850 25.1 16.8 62.2 49 6.1 43
22:05 1021 30.15 850 25.1 16.6 61.8 56 7.8 46
22:10 1021 30.15 850 25.1 16.4 61.5 60 8.6 47.5
22:15 1021 30.15 850 25.1 16 60.9 60 8.5 47.3
22:20 1021 30.15 850 25.1 16 60.7 62 8.7 47.6
22:25 1021 30.15 851 25.13 15.9 60.6 62 8.7 47.7
22:30 1021 30.15 851 25.13 16.1 60.9 66 9.7 49.5
22:35 1021 30.15 851 25.13 16 60.9 62 8.7 47.7
22:40 1021 30.15 851 25.13 15.7 60.3 62 8.7 47.6
22:45 1021 30.15 851 25.13 15.6 60.1 59 7.8 46
22:50 1021 30.15 851 25.13 15.4 59.6 59 7.5 45.5
22:55 1022 30.18 851 25.13 15.1 59.1 61 7.7 45.8
23:00 1022 30.18 851 25.13 14.9 58.8 63 7.9 46.3
23:05 1022 30.18 851 25.13 14.7 58.5 62 7.7 45.8
23:10 1022 30.18 851 25.13 14.6 58.4 63 7.7 45.9
23:15 1022 30.18 851 25.13 14.9 58.9 64 8.2 46.7
23:20 1022 30.18 851 25.13 15 59 65 8.6 47.5
23:25 1022 30.18 851 25.13 14.9 58.9 69 9.4 48.8
23:30 1022 30.18 851 25.13 14.8 58.6 71 9.6 49.4
23:35 1022 30.18 851 25.13 14.8 58.7 76 10.6 51.1
23:40 1022 30.18 851 25.13 14.9 58.8 79 11.2 52.2
23:45 1022 30.18 851 25.13 15.1 59.1 78 11.4 52.5
23:50 1022 30.18 851 25.13 15.3 59.5 78 11.5 52.7
23:55 1022 30.18 851 25.13 15.4 59.7 78 11.5 52.8
24:00 1022 30.18 851 25.13 15.4 59.7 77 11.4 52.6